Terminal Aerodrome Forecast
Issued by NWS

Home | Current Version | Previous Version | Text Only | Print | Product List | Glossary On
Versions: 1 2 3 4 5 6 7 8 9 10 11 12 13 14 15
879
FTUS45 KRIW 101721
TAFBPI
TAF
KBPI 101721Z 1018/1118 VRB05KT 6SM -SN SCT015 OVC035
     FM102000 26010KT 5SM -SN OVC025
     FM110200 30012KT P6SM VCSH SCT025 BKN040
     FM111300 33009KT P6SM BKN060=

USA.gov is the U.S. government's official web portal to all federal, state and local government web resources and services.